Time;durP1;ratioP1;P1;durP2;ratioP2;P2;SDS_P1;SDS_P2;PMS_P1;PMS_P2;Temp;Humidity;BMP_temperature;BMP_pressure;BME280_temperature;BME280_humidity;BME280_pressure;Samples;Min_cycle;Max_cycle;Signal;HPM_P1;HPM_P2
2021/08/19 00:00:45;;;;;;;18.13;12.50;;;;;;;22.91;68.54;99097.84;3465518;28;20069;-68
2021/08/19 00:02:26;;;;;;;15.53;12.43;;;;;;;22.95;68.60;99093.41;3466619;28;20073;-70
2021/08/19 00:04:08;;;;;;;20.55;14.13;;;;;;;22.99;68.25;99099.94;3469923;28;20037;-69
2021/08/19 00:05:48;;;;;;;19.50;13.40;;;;;;;23.01;68.19;99098.53;3467033;28;20061;-69
2021/08/19 00:07:29;;;;;;;20.80;14.50;;;;;;;23.02;68.27;99107.50;3469803;28;20041;-70
2021/08/19 00:09:10;;;;;;;20.27;14.80;;;;;;;22.99;68.70;99099.94;3469035;28;20041;-72
2021/08/19 00:10:51;;;;;;;18.43;12.57;;;;;;;22.97;68.75;99097.50;3468377;28;20385;-70
2021/08/19 00:12:32;;;;;;;16.40;11.67;;;;;;;23.00;68.36;99102.38;3463735;28;20045;-70
2021/08/19 00:14:12;;;;;;;16.77;11.90;;;;;;;23.03;68.13;99095.53;3469431;28;20086;-70
2021/08/19 00:15:54;;;;;;;15.63;11.90;;;;;;;23.07;67.88;99102.81;3469727;28;20500;-70
2021/08/19 00:17:35;;;;;;;16.25;12.65;;;;;;;23.07;68.14;99097.38;3463347;28;20073;-70
2021/08/19 00:19:16;;;;;;;18.00;12.33;;;;;;;23.09;68.15;99105.25;3456223;28;20417;-69
2021/08/19 00:20:56;;;;;;;15.43;12.07;;;;;;;23.10;67.85;99106.84;3456395;28;20405;-70
2021/08/19 00:22:37;;;;;;;12.83;10.90;;;;;;;23.09;67.79;99099.81;3465052;28;20052;-70
2021/08/19 00:24:18;;;;;;;13.37;11.97;;;;;;;23.14;67.77;99112.53;3467305;28;20045;-69
2021/08/19 00:25:58;;;;;;;20.40;11.50;;;;;;;23.14;67.88;99105.19;3454683;28;20478;-70
2021/08/19 00:27:39;;;;;;;14.93;11.07;;;;;;;23.14;67.76;99104.38;3455564;28;20046;-70
2021/08/19 00:29:20;;;;;;;15.70;11.07;;;;;;;23.12;67.87;99106.56;3461950;28;20037;-69
2021/08/19 00:31:03;;;;;;;14.02;10.63;;;;;;;23.13;67.76;99116.34;3466805;28;20045;-69
2021/08/19 00:32:44;;;;;;;14.67;11.70;;;;;;;23.13;67.86;99117.16;3455276;28;20121;-69
2021/08/19 00:34:31;;;;;;;14.63;10.88;;;;;;;23.12;67.72;99112.81;3459682;28;20500;-70
2021/08/19 00:36:12;;;;;;;14.47;12.23;;;;;;;23.13;67.99;99105.47;3469202;28;20106;-70
2021/08/19 00:37:52;;;;;;;14.13;11.90;;;;;;;23.15;67.77;99114.13;3469314;28;20076;-71
2021/08/19 00:39:33;;;;;;;14.73;12.10;;;;;;;23.17;67.65;99117.38;3454003;28;20464;-70
2021/08/19 00:41:15;;;;;;;15.65;12.10;;;;;;;23.17;67.77;99117.38;3466409;28;20099;-70
2021/08/19 00:42:57;;;;;;;14.27;11.90;;;;;;;23.16;67.68;99113.06;3470775;28;20045;-70
2021/08/19 00:44:42;;;;;;;17.73;11.23;;;;;;;23.15;67.82;99117.66;3470256;28;20045;-69
2021/08/19 00:46:28;;;;;;;12.15;10.23;;;;;;;23.17;67.48;99117.38;3471262;28;20045;-69
2021/08/19 00:48:09;;;;;;;16.52;11.52;;;;;;;23.16;67.89;99115.78;3472536;28;20038;-69
2021/08/19 00:49:51;;;;;;;17.73;11.20;;;;;;;23.15;67.66;99114.94;3471912;28;20126;-71
2021/08/19 00:51:49;;;;;;;12.85;10.82;;;;;;;23.21;67.87;99107.56;3470695;28;20044;-71
2021/08/19 00:53:30;;;;;;;18.00;13.07;;;;;;;23.20;67.60;99114.88;3471884;28;20135;-70
2021/08/19 00:55:12;;;;;;;15.27;10.63;;;;;;;23.22;67.27;99117.31;3470122;28;20075;-70
2021/08/19 00:56:54;;;;;;;;;;;;;;;23.27;67.25;99107.16;3470974;28;20519;-69
2021/08/19 00:58:35;;;;;;;12.38;10.25;;;;;;;23.22;67.42;99117.31;3470517;28;20031;-70
2021/08/19 01:00:16;;;;;;;18.25;11.10;;;;;;;23.20;67.42;99109.44;3468628;28;20041;-69
2021/08/19 01:01:57;;;;;;;16.07;11.50;;;;;;;23.19;67.27;99105.13;3471128;28;20124;-69
2021/08/19 01:03:38;;;;;;;15.55;11.10;;;;;;;23.18;67.58;99105.38;3472329;28;20042;-70
2021/08/19 01:05:22;;;;;;;15.23;11.10;;;;;;;23.16;67.69;99115.78;3468715;28;20507;-69
2021/08/19 01:07:07;;;;;;;15.23;10.00;;;;;;;23.15;67.67;99106.78;3471790;28;20045;-70
2021/08/19 01:08:50;;;;;;;14.90;10.20;;;;;;;23.17;67.56;99107.31;3472347;28;20061;-71
2021/08/19 01:10:31;;;;;;;16.20;10.85;;;;;;;23.20;67.34;99106.72;3468541;28;20124;-69
2021/08/19 01:12:13;;;;;;;13.30;11.00;;;;;;;23.19;67.11;99104.31;3466588;28;20029;-74
2021/08/19 01:13:54;;;;;;;;;;;;;;;23.26;67.22;99116.44;3466957;28;20057;-78
2021/08/19 01:15:50;;;;;;;16.20;11.20;;;;;;;23.17;67.38;99109.22;3448042;28;19921;-79
2021/08/19 01:17:30;;;;;;;14.67;10.87;;;;;;;23.12;67.68;99109.28;3457675;28;20491;-77
2021/08/19 01:19:22;;;;;;;19.30;11.53;;;;;;;23.10;67.87;99116.91;3458666;28;20045;-79
2021/08/19 01:21:03;;;;;;;12.82;10.98;;;;;;;23.05;67.90;99115.91;3467708;28;20053;-80
2021/08/19 01:22:45;;;;;;;11.27;10.02;;;;;;;23.02;68.07;99113.75;3473459;28;20037;-78
2021/08/19 01:24:25;;;;;;;15.17;11.43;;;;;;;22.99;68.09;99108.09;3473083;28;20041;-78
2021/08/19 01:26:10;;;;;;;13.10;10.43;;;;;;;22.91;68.39;99101.34;3459053;28;20042;-78
2021/08/19 01:27:53;;;;;;;14.43;11.15;;;;;;;22.94;68.30;99102.69;3457620;28;20472;-79
2021/08/19 01:29:34;;;;;;;12.18;10.20;;;;;;;22.92;68.36;99102.97;3459777;28;20042;-77
2021/08/19 01:31:17;;;;;;;16.13;11.80;;;;;;;22.91;68.66;99119.56;3459429;28;20141;-78
2021/08/19 01:32:58;;;;;;;13.23;10.70;;;;;;;22.89;68.51;99106.25;3465789;28;20045;-78
2021/08/19 01:34:40;;;;;;;16.67;9.33;;;;;;;22.89;68.50;99106.25;3471980;28;20053;-80
2021/08/19 01:36:20;;;;;;;22.20;11.50;;;;;;;22.88;68.38;99106.56;3467761;28;22124;-79
2021/08/19 01:38:01;;;;;;;14.10;11.20;;;;;;;22.89;68.65;99098.13;3467480;28;20045;-78
2021/08/19 01:39:42;;;;;;;13.17;11.07;;;;;;;22.88;68.59;99107.38;3459168;28;20480;-77
2021/08/19 01:41:22;;;;;;;17.03;11.00;;;;;;;22.88;68.53;99104.66;3460669;28;20096;-78
2021/08/19 01:43:07;;;;;;;16.87;10.40;;;;;;;22.89;68.44;99102.75;3462114;28;20179;-78
2021/08/19 01:44:48;;;;;;;13.43;10.45;;;;;;;22.89;68.64;99105.47;3472615;28;20038;-77
2021/08/19 01:46:28;;;;;;;12.40;10.57;;;;;;;22.85;68.48;99102.53;3469391;28;20048;-79
2021/08/19 01:48:09;;;;;;;12.90;10.50;;;;;;;22.83;68.54;99108.25;3471848;28;20425;-78
2021/08/19 01:49:50;;;;;;;14.17;11.07;;;;;;;22.78;68.83;99092.00;3472041;28;20448;-80
2021/08/19 01:51:33;;;;;;;15.33;11.47;;;;;;;22.74;69.09;99104.53;3471406;28;20053;-77
2021/08/19 01:53:14;;;;;;;13.18;9.98;;;;;;;22.67;68.98;99087.00;3471157;28;20056;-81
2021/08/19 01:54:54;;;;;;;11.97;10.33;;;;;;;22.73;68.94;99097.50;3470905;28;20041;-80
2021/08/19 01:56:35;;;;;;;13.30;10.50;;;;;;;22.75;69.00;99099.94;3469389;28;20145;-78
2021/08/19 01:58:17;;;;;;;12.93;10.23;;;;;;;22.75;68.82;99106.16;3459619;28;20057;-80
2021/08/19 01:59:59;;;;;;;13.45;10.23;;;;;;;22.74;68.63;99096.38;3458254;28;20048;-79
2021/08/19 02:01:39;;;;;;;14.13;10.30;;;;;;;22.75;68.80;99098.00;3468679;28;20037;-82
2021/08/19 02:03:20;;;;;;;13.20;9.50;;;;;;;22.75;68.89;99102.66;3470894;28;20083;-78
2021/08/19 02:05:01;;;;;;;11.50;9.70;;;;;;;22.76;68.89;99110.50;3471749;28;20053;-78
2021/08/19 02:06:42;;;;;;;15.53;9.63;;;;;;;22.77;68.94;99097.72;3468905;28;20046;-80
2021/08/19 02:08:22;;;;;;;14.17;11.07;;;;;;;22.76;68.93;99099.63;3452011;28;20117;-78
2021/08/19 02:10:03;;;;;;;12.47;10.47;;;;;;;22.74;68.90;99109.16;3456679;28;20123;-77
2021/08/19 02:11:44;;;;;;;12.60;10.23;;;;;;;22.72;68.95;99100.47;3457967;28;20073;-79
2021/08/19 02:13:25;;;;;;;14.02;11.75;;;;;;;22.68;69.15;99102.97;3457361;28;20082;-80
2021/08/19 02:15:06;;;;;;;14.53;11.33;;;;;;;22.65;69.28;99100.84;3469387;28;20394;-77
2021/08/19 02:16:46;;;;;;;12.37;11.07;;;;;;;22.62;69.40;99102.22;3467841;28;20037;-79
2021/08/19 02:18:27;;;;;;;15.53;10.60;;;;;;;22.59;69.24;99108.25;3471391;28;20045;-78
2021/08/19 02:20:08;;;;;;;17.57;11.93;;;;;;;22.58;69.64;99112.03;3463216;28;20037;-77
2021/08/19 02:21:49;;;;;;;14.38;10.52;;;;;;;22.56;69.69;99114.25;3460841;28;20485;-77
2021/08/19 02:23:30;;;;;;;20.00;11.90;;;;;;;22.54;69.70;99121.88;3471459;28;20099;-78
2021/08/19 02:25:11;;;;;;;15.87;11.10;;;;;;;22.52;69.55;99124.06;3470237;28;20039;-78
2021/08/19 02:26:51;;;;;;;12.37;10.70;;;;;;;22.51;69.79;99117.03;3467679;28;20046;-80
2021/08/19 02:28:32;;;;;;;14.57;10.80;;;;;;;22.50;69.68;99123.53;3471207;28;20767;-77
2021/08/19 02:30:13;;;;;;;15.20;11.10;;;;;;;22.48;69.73;99123.00;3468345;28;20041;-79
2021/08/19 02:31:53;;;;;;;18.27;9.83;;;;;;;22.53;69.55;99119.44;3469721;28;20080;-78
2021/08/19 02:33:34;;;;;;;17.50;11.00;;;;;;;22.53;69.65;99122.97;3469492;28;20060;-79
2021/08/19 02:35:15;;;;;;;14.83;10.10;;;;;;;22.57;69.45;99121.31;3461532;28;20084;-78
2021/08/19 02:36:56;;;;;;;17.27;11.37;;;;;;;22.57;69.42;99125.94;3457446;28;20109;-79
2021/08/19 02:38:36;;;;;;;13.20;11.60;;;;;;;22.59;69.22;99119.09;3457025;28;20044;-80
2021/08/19 02:40:17;;;;;;;15.40;11.27;;;;;;;22.58;69.28;99122.91;3471174;28;20049;-79
2021/08/19 02:41:58;;;;;;;16.17;12.23;;;;;;;22.57;69.70;99115.88;3470230;28;20037;-78
2021/08/19 02:43:43;;;;;;;13.37;10.13;;;;;;;22.58;69.28;99122.91;3471134;28;20045;-78
2021/08/19 02:45:23;;;;;;;13.25;10.38;;;;;;;22.58;69.36;99128.34;3470207;28;20476;-80
2021/08/19 02:47:06;;;;;;;18.40;11.23;;;;;;;22.57;69.56;99126.72;3469383;28;20065;-79
2021/08/19 02:48:47;;;;;;;14.82;10.20;;;;;;;22.58;69.70;99135.69;3457330;28;20068;-78
2021/08/19 02:50:28;;;;;;;14.27;10.60;;;;;;;22.59;69.60;99129.16;3457707;28;20049;-79
2021/08/19 02:52:09;;;;;;;15.43;11.75;;;;;;;22.57;69.87;99121.31;3459719;28;20047;-77
2021/08/19 02:53:50;;;;;;;14.63;10.97;;;;;;;22.58;69.50;99122.91;3471259;28;20045;-79
2021/08/19 02:55:31;;;;;;;15.43;11.07;;;;;;;22.57;69.68;99134.06;3465637;28;20045;-78
2021/08/19 02:57:15;;;;;;;17.13;11.32;;;;;;;22.54;69.65;99135.47;3465186;28;20052;-79
2021/08/19 02:58:55;;;;;;;12.67;10.40;;;;;;;22.51;69.77;99140.63;3470929;28;20517;-80
2021/08/19 03:00:36;;;;;;;15.13;11.10;;;;;;;22.47;69.84;99132.25;3469904;28;20420;-80
2021/08/19 03:02:17;;;;;;;11.13;9.50;;;;;;;22.51;69.85;99132.50;3470159;28;20056;-77
2021/08/19 03:03:57;;;;;;;13.23;10.20;;;;;;;22.53;69.75;99131.09;3470838;28;20049;-78
2021/08/19 03:05:38;;;;;;;12.00;9.57;;;;;;;22.56;69.73;99135.16;3468790;28;20047;-79
2021/08/19 03:07:19;;;;;;;12.03;9.80;;;;;;;22.55;69.56;99133.53;3468121;28;20087;-79
2021/08/19 03:08:59;;;;;;;12.47;11.17;;;;;;;22.54;69.43;99138.19;3470750;28;20071;-77
2021/08/19 03:10:40;;;;;;;12.33;10.60;;;;;;;22.53;69.54;99135.75;3470890;28;20440;-80
2021/08/19 03:12:22;;;;;;;13.35;10.73;;;;;;;22.51;69.61;99132.50;3469741;28;20501;-79
2021/08/19 03:14:04;;;;;;;15.90;10.40;;;;;;;22.55;69.50;99138.97;3470802;28;20053;-77
2021/08/19 03:15:44;;;;;;;11.50;9.67;;;;;;;22.57;69.38;99140.31;3465677;28;20128;-79
2021/08/19 03:17:25;;;;;;;13.17;10.73;;;;;;;22.57;69.41;99140.31;3458332;28;20100;-77
2021/08/19 03:19:06;;;;;;;14.20;10.17;;;;;;;22.57;69.50;99143.03;3469608;28;20041;-78
2021/08/19 03:20:46;;;;;;;19.80;10.00;;;;;;;22.58;69.41;99139.19;3470762;28;20056;-78
2021/08/19 03:22:27;;;;;;;17.47;10.10;;;;;;;22.60;69.52;99142.44;3469367;28;20493;-80
2021/08/19 03:24:08;;;;;;;11.53;9.20;;;;;;;22.61;69.13;99144.09;3468446;28;20574;-79
2021/08/19 03:25:48;;;;;;;11.90;10.07;;;;;;;22.61;69.26;99135.94;3467422;28;20087;-81
2021/08/19 03:27:31;;;;;;;12.07;10.20;;;;;;;22.59;69.61;99138.13;3457444;28;20061;-78
2021/08/19 03:29:13;;;;;;;12.60;10.55;;;;;;;22.58;69.75;99133.78;3467968;28;20037;-78
2021/08/19 03:30:54;;;;;;;14.90;10.63;;;;;;;22.57;69.54;99134.88;3468951;28;20045;-78
2021/08/19 03:32:37;;;;;;;12.33;9.73;;;;;;;22.57;69.47;99139.50;3464391;28;20128;-78
2021/08/19 03:34:18;;;;;;;13.95;9.32;;;;;;;22.59;69.56;99135.41;3456713;28;20129;-80
2021/08/19 03:35:59;;;;;;;13.63;9.50;;;;;;;22.61;69.65;99135.94;3456867;28;20057;-79
2021/08/19 03:37:40;;;;;;;15.83;9.90;;;;;;;22.64;69.39;99134.56;3457982;28;20037;-79
2021/08/19 03:39:23;;;;;;;15.43;10.52;;;;;;;22.67;69.18;99127.72;3456825;28;20046;-78
2021/08/19 03:41:04;;;;;;;14.57;9.93;;;;;;;22.72;69.19;99133.09;3455594;28;20514;-77
2021/08/19 03:42:44;;;;;;;16.13;10.50;;;;;;;22.75;69.06;99132.53;3464722;28;20045;-78
2021/08/19 03:44:25;;;;;;;13.43;9.40;;;;;;;22.81;68.85;99131.38;3469959;28;20048;-80
2021/08/19 03:46:06;;;;;;;9.93;8.87;;;;;;;22.84;68.73;99133.50;3464384;28;20061;-79
2021/08/19 03:47:46;;;;;;;13.13;9.73;;;;;;;22.93;68.70;99139.94;3460357;28;20045;-78
2021/08/19 03:49:27;;;;;;;11.63;10.23;;;;;;;22.98;68.67;99136.38;3470213;28;20064;-78
2021/08/19 03:51:09;;;;;;;12.77;10.53;;;;;;;23.02;68.51;99132.75;3471017;28;20045;-77
2021/08/19 03:52:51;;;;;;;16.88;10.98;;;;;;;23.02;68.65;99126.53;3461207;28;20053;-79
2021/08/19 03:54:31;;;;;;;18.70;10.80;;;;;;;23.04;68.45;99127.84;3461483;28;20426;-79
2021/08/19 03:56:12;;;;;;;11.87;10.53;;;;;;;23.01;68.69;99120.28;3472082;28;20496;-78
2021/08/19 03:57:53;;;;;;;14.73;11.23;;;;;;;23.01;68.50;99123.00;3463892;28;20053;-78
2021/08/19 03:59:33;;;;;;;16.47;11.20;;;;;;;23.06;68.32;99125.66;3457602;28;20052;-80
2021/08/19 04:01:14;;;;;;;17.03;10.63;;;;;;;23.07;68.49;99124.53;3457694;28;20129;-77
2021/08/19 04:02:55;;;;;;;16.23;10.30;;;;;;;23.08;68.56;99126.19;3456374;28;20048;-79
2021/08/19 04:04:36;;;;;;;11.33;10.03;;;;;;;23.12;68.17;99126.41;3467340;28;20045;-77
2021/08/19 04:06:17;;;;;;;12.33;9.37;;;;;;;23.17;68.07;99125.53;3463207;28;20838;-79
2021/08/19 04:07:58;;;;;;;19.98;10.85;;;;;;;23.22;67.92;99133.63;3465627;28;20580;-80
2021/08/19 04:09:39;;;;;;;19.83;11.17;;;;;;;23.24;68.05;99123.28;3467942;28;20033;-77
2021/08/19 04:11:19;;;;;;;15.87;9.50;;;;;;;23.29;67.73;99132.16;3470214;28;20501;-78
2021/08/19 04:13:00;;;;;;;20.37;10.30;;;;;;;23.31;67.98;99129.13;3462151;28;20077;-79
2021/08/19 04:14:41;;;;;;;11.63;10.30;;;;;;;23.30;67.85;99122.09;3456384;28;20042;-78
2021/08/19 04:16:22;;;;;;;10.73;9.63;;;;;;;23.34;67.81;99128.56;3461058;28;20047;-78
2021/08/19 04:18:02;;;;;;;10.70;9.17;;;;;;;23.37;68.02;99130.72;3462271;28;20042;-79
2021/08/19 04:19:43;;;;;;;12.60;9.83;;;;;;;23.41;67.64;99125.47;3466069;28;20095;-81
2021/08/19 04:21:24;;;;;;;11.30;10.07;;;;;;;23.41;67.72;99120.84;3467972;28;20394;-79
2021/08/19 04:23:04;;;;;;;16.37;10.90;;;;;;;23.42;67.25;99130.63;3466545;28;20038;-77
2021/08/19 04:24:45;;;;;;;13.73;10.10;;;;;;;23.42;67.39;99122.47;3469913;28;20041;-80
2021/08/19 04:26:28;;;;;;;11.57;10.03;;;;;;;23.42;67.50;99124.41;3468957;28;20100;-77
2021/08/19 04:28:09;;;;;;;10.73;9.35;;;;;;;23.44;67.41;99116.72;3463279;28;20048;-78
2021/08/19 04:29:49;;;;;;;11.27;8.00;;;;;;;23.52;67.12;99119.63;3457272;28;20053;-80
2021/08/19 04:31:30;;;;;;;13.03;9.10;;;;;;;23.57;66.89;99115.19;3464027;28;20124;-77
2021/08/19 04:33:11;;;;;;;15.57;9.70;;;;;;;23.66;66.64;99122.41;3461334;28;20095;-78
2021/08/19 04:34:55;;;;;;;16.40;9.73;;;;;;;23.72;66.68;99120.44;3460827;28;20037;-78
2021/08/19 04:36:37;;;;;;;16.42;10.60;;;;;;;23.73;66.81;99122.06;3460470;28;20033;-80
2021/08/19 04:38:19;;;;;;;14.35;8.10;;;;;;;23.83;66.97;99124.63;3460962;28;20033;-77
2021/08/19 04:40:00;;;;;;;9.60;6.93;;;;;;;23.95;66.40;99116.78;3461731;28;20034;-78
2021/08/19 04:41:43;;;;;;;11.20;7.75;;;;;;;24.13;66.14;99127.94;3459160;28;20033;-78
2021/08/19 04:43:23;;;;;;;8.02;7.07;;;;;;;24.26;65.92;99127.19;3460272;28;20033;-76
2021/08/19 04:45:05;;;;;;;9.47;8.30;;;;;;;24.41;65.11;99134.28;3457531;28;20052;-78
2021/08/19 04:46:47;;;;;;;7.50;5.53;;;;;;;24.52;64.88;99124.03;3462773;28;20037;-78
2021/08/19 04:48:29;;;;;;;11.25;8.27;;;;;;;24.60;64.22;99128.78;3466948;28;20153;-77
2021/08/19 04:50:11;;;;;;;11.65;9.07;;;;;;;24.66;64.52;99129.50;3460186;28;20485;-77
2021/08/19 04:51:52;;;;;;;12.50;7.80;;;;;;;24.69;64.28;99135.16;3459286;28;20045;-79
2021/08/19 04:53:37;;;;;;;8.95;6.78;;;;;;;24.74;64.08;99137.78;3459478;28;20044;-79
2021/08/19 04:55:18;;;;;;;11.65;7.47;;;;;;;24.83;63.70;99139.81;3462397;28;20076;-78
2021/08/19 04:56:59;;;;;;;;;;;;;;;24.92;63.62;99132.56;3459954;28;20061;-77
2021/08/19 04:58:41;;;;;;;8.18;6.07;;;;;;;24.96;62.90;99134.38;3460124;28;20311;-79
2021/08/19 05:00:22;;;;;;;9.35;6.72;;;;;;;25.02;62.51;99137.81;3459451;28;20134;-75
2021/08/19 05:02:03;;;;;;;17.23;8.63;;;;;;;25.08;63.00;99133.84;3459734;28;20124;-75
2021/08/19 05:03:44;;;;;;;25.00;9.60;;;;;;;25.16;65.33;99133.16;3458722;28;20091;-75
2021/08/19 05:05:27;;;;;;;23.48;9.07;;;;;;;25.24;66.38;99137.88;3464487;28;20559;-78
2021/08/19 05:07:08;;;;;;;19.15;7.72;;;;;;;25.35;66.47;99132.22;3466725;28;20036;-75
2021/08/19 05:08:49;;;;;;;15.63;9.13;;;;;;;25.42;66.08;99129.88;3466712;28;20036;-77
2021/08/19 05:10:29;;;;;;;27.20;19.03;;;;;;;25.50;66.40;99131.06;3460992;28;20049;-73
2021/08/19 05:12:13;;;;;;;25.73;18.70;;;;;;;25.48;64.64;99131.41;3460146;28;20048;-78
2021/08/19 05:13:57;;;;;;;28.95;21.58;;;;;;;25.43;64.76;99129.59;3457311;28;20050;-79
2021/08/19 05:15:38;;;;;;;48.25;30.85;;;;;;;25.48;66.72;99134.13;3465628;28;20044;-78
2021/08/19 05:17:20;;;;;;;42.80;25.83;;;;;;;25.59;67.36;99127.31;3458095;28;20041;-76
2021/08/19 05:19:00;;;;;;;;;;;;;;;25.73;66.40;99134.66;3459562;28;20127;-75
2021/08/19 05:20:41;;;;;;;23.33;15.85;;;;;;;25.77;66.12;99136.47;3458471;28;19925;-77
2021/08/19 05:22:22;;;;;;;18.47;14.47;;;;;;;25.80;65.57;99126.84;3460878;28;20038;-75
2021/08/19 05:24:03;;;;;;;19.73;15.07;;;;;;;25.84;65.74;99122.38;3461727;28;20164;-77
2021/08/19 05:25:45;;;;;;;21.08;12.10;;;;;;;25.88;64.51;99126.13;3467436;28;20128;-79
2021/08/19 05:27:25;;;;;;;22.55;13.45;;;;;;;25.93;64.64;99128.75;3458333;28;20448;-75
2021/08/19 05:29:06;;;;;;;16.83;13.27;;;;;;;26.04;65.31;99124.63;3458773;28;20073;-76
2021/08/19 05:30:48;;;;;;;19.53;11.73;;;;;;;26.14;64.63;99129.03;3457374;28;20497;-75
2021/08/19 05:32:29;;;;;;;15.13;10.85;;;;;;;26.24;63.99;99127.97;3458223;28;20042;-77
2021/08/19 05:34:10;;;;;;;16.20;10.20;;;;;;;26.33;63.65;99123.34;3466201;28;20128;-76
2021/08/19 05:35:51;;;;;;;14.67;9.70;;;;;;;26.42;64.24;99124.22;3466878;28;20048;-78
2021/08/19 05:37:32;;;;;;;18.67;9.53;;;;;;;26.53;63.45;99122.84;3468311;28;20034;-75
2021/08/19 05:39:12;;;;;;;12.43;10.10;;;;;;;26.66;63.84;99112.16;3458379;28;20091;-77
2021/08/19 05:40:55;;;;;;;13.27;9.20;;;;;;;26.77;62.22;99124.44;3469075;28;20049;-74
2021/08/19 05:42:37;;;;;;;15.55;9.57;;;;;;;26.84;61.29;99119.28;3463993;28;20077;-72
2021/08/19 05:44:19;;;;;;;14.07;8.82;;;;;;;26.92;60.99;99123.16;3455451;28;20526;-71
2021/08/19 05:46:00;;;;;;;12.15;9.00;;;;;;;27.01;60.55;99126.75;3456563;28;20037;-74
2021/08/19 05:47:42;;;;;;;12.53;9.93;;;;;;;26.98;60.17;99114.50;3455747;28;20073;-76
2021/08/19 05:49:24;;;;;;;12.40;9.15;;;;;;;27.04;59.84;99123.38;3456434;28;20128;-76
2021/08/19 05:51:10;;;;;;;14.68;9.00;;;;;;;27.02;59.95;99124.81;3463904;28;20515;-76
2021/08/19 05:52:51;;;;;;;12.23;8.55;;;;;;;27.04;59.59;99128.03;3458100;28;20057;-76
2021/08/19 05:54:31;;;;;;;15.33;8.67;;;;;;;27.04;59.36;99125.31;3457061;28;20429;-76
2021/08/19 05:56:12;;;;;;;16.63;8.73;;;;;;;27.05;59.21;99124.19;3457153;28;20042;-76
2021/08/19 05:57:53;;;;;;;10.97;8.13;;;;;;;27.09;59.46;99133.38;3457854;28;20042;-77
2021/08/19 05:59:37;;;;;;;11.20;7.97;;;;;;;27.11;59.03;99123.72;3458576;28;20477;-76
2021/08/19 06:01:18;;;;;;;14.05;8.45;;;;;;;27.12;58.77;99125.31;3459594;28;20456;-79
2021/08/19 06:02:59;;;;;;;10.53;8.33;;;;;;;27.13;58.54;99126.13;3457502;28;20091;-79
2021/08/19 06:04:39;;;;;;;11.50;8.70;;;;;;;27.10;57.87;99132.22;3457618;28;20078;-78
2021/08/19 06:06:20;;;;;;;14.07;11.73;;;;;;;27.05;58.07;99130.44;3468239;28;20045;-75
2021/08/19 06:08:01;;;;;;;;;;;;;;;27.08;58.36;99129.84;3471673;28;20049;-75
2021/08/19 06:09:42;;;;;;;14.02;8.43;;;;;;;27.00;58.11;99136.06;3471467;28;19960;-80
2021/08/19 06:11:23;;;;;;;17.13;8.23;;;;;;;27.01;57.99;99125.94;3469892;28;20125;-77
2021/08/19 06:13:05;;;;;;;13.48;7.63;;;;;;;27.13;57.51;99126.13;3471211;28;20061;-78
2021/08/19 06:14:46;;;;;;;9.77;7.63;;;;;;;27.24;57.37;99126.69;3471521;28;20172;-77
2021/08/19 06:16:27;;;;;;;11.30;7.43;;;;;;;27.37;56.82;99129.28;3460988;28;20038;-76
2021/08/19 06:18:08;;;;;;;16.27;6.77;;;;;;;27.54;56.77;99117.50;3461649;28;20103;-77
2021/08/19 06:19:48;;;;;;;15.53;8.80;;;;;;;27.71;55.76;99118.66;3462392;28;20072;-75
2021/08/19 06:21:29;;;;;;;15.17;8.60;;;;;;;27.80;55.59;99127.66;3462994;28;20117;-77
2021/08/19 06:23:13;;;;;;;11.75;8.15;;;;;;;27.84;55.38;99123.19;3464449;28;20041;-76
2021/08/19 06:24:54;;;;;;;10.43;8.50;;;;;;;27.84;54.99;99123.19;3468978;28;20046;-78
2021/08/19 06:26:35;;;;;;;11.90;6.77;;;;;;;27.82;54.84;99129.00;3471044;28;20044;-75
2021/08/19 06:28:17;;;;;;;11.83;7.33;;;;;;;27.79;54.73;99132.34;3471093;28;20045;-75
2021/08/19 06:29:58;;;;;;;12.63;7.55;;;;;;;27.77;54.53;99123.63;3471210;28;20049;-75
2021/08/19 06:31:39;;;;;;;10.77;8.10;;;;;;;27.71;54.69;99121.41;3470098;28;20512;-77
2021/08/19 06:33:20;;;;;;;12.90;7.73;;;;;;;27.76;54.95;99133.00;3471031;28;20081;-78
2021/08/19 06:35:00;;;;;;;12.60;7.83;;;;;;;27.83;54.64;99133.34;3469746;28;20299;-75
2021/08/19 06:36:41;;;;;;;8.07;6.67;;;;;;;27.99;54.10;99130.13;3470548;28;20096;-77
2021/08/19 06:38:22;;;;;;;14.30;7.73;;;;;;;28.19;53.73;99132.19;3469580;28;20120;-77
2021/08/19 06:40:03;;;;;;;12.23;7.80;;;;;;;28.39;53.31;99132.59;3468711;28;20416;-78
2021/08/19 06:41:44;;;;;;;10.95;6.60;;;;;;;28.59;52.95;99125.66;3469844;28;20119;-79
2021/08/19 06:43:25;;;;;;;8.32;7.18;;;;;;;28.76;52.58;99130.25;3470484;28;20053;-76
2021/08/19 06:45:09;;;;;;;7.63;6.17;;;;;;;28.86;52.21;99138.09;3470781;28;20065;-78
2021/08/19 06:46:50;;;;;;;11.18;8.88;;;;;;;28.85;52.01;99144.75;3471467;28;20045;-76
2021/08/19 06:48:31;;;;;;;14.97;7.90;;;;;;;28.81;52.03;99146.50;3470932;28;20042;-79
2021/08/19 06:50:30;;;;;;;10.48;7.00;;;;;;;28.81;52.08;99149.25;3469336;28;20467;-76
2021/08/19 06:52:11;;;;;;;11.80;7.32;;;;;;;28.86;51.85;99147.16;3442321;28;20042;-78
2021/08/19 06:53:53;;;;;;;7.60;6.77;;;;;;;28.95;51.71;99144.38;3454428;28;20037;-76
2021/08/19 06:55:33;;;;;;;8.57;6.43;;;;;;;28.93;51.73;99152.13;3458213;28;20367;-75
2021/08/19 06:57:14;;;;;;;8.03;5.73;;;;;;;28.91;51.68;99151.63;3457507;28;20053;-76
2021/08/19 06:58:54;;;;;;;9.33;6.07;;;;;;;28.83;51.58;99152.47;3457186;28;20049;-79
2021/08/19 07:00:35;;;;;;;7.80;6.40;;;;;;;28.74;51.87;99152.53;3457311;28;20060;-78
2021/08/19 07:02:16;;;;;;;10.70;7.22;;;;;;;28.66;51.79;99153.38;3456200;28;20046;-78
2021/08/19 07:03:57;;;;;;;14.97;9.93;;;;;;;28.60;52.14;99155.47;3456890;28;20497;-77
2021/08/19 07:05:37;;;;;;;9.70;8.40;;;;;;;28.49;51.91;99154.22;3457262;28;20038;-77
2021/08/19 07:07:18;;;;;;;11.10;7.93;;;;;;;28.41;51.95;99155.03;3457800;28;20053;-78
2021/08/19 07:08:59;;;;;;;11.67;7.20;;;;;;;28.36;52.05;99157.94;3455831;28;20374;-78
2021/08/19 07:10:40;;;;;;;11.10;6.60;;;;;;;28.38;52.22;99155.69;3456814;28;20280;-76
2021/08/19 07:12:22;;;;;;;9.57;7.32;;;;;;;28.36;51.95;99153.25;3456820;28;20288;-78
2021/08/19 07:14:03;;;;;;;9.98;6.45;;;;;;;28.25;51.64;99144.56;3456495;28;20085;-77
2021/08/19 07:15:45;;;;;;;;;;;;;;;28.34;52.13;99157.44;3456251;28;20493;-77
2021/08/19 07:17:25;;;;;;;9.00;5.97;;;;;;;28.23;52.45;99146.84;3456524;28;20011;-77
2021/08/19 07:19:06;;;;;;;7.73;6.93;;;;;;;28.18;51.93;99155.22;3456656;28;20055;-76
2021/08/19 07:20:47;;;;;;;13.97;6.67;;;;;;;28.08;52.42;99154.75;3456550;28;20060;-78
2021/08/19 07:22:28;;;;;;;7.67;6.23;;;;;;;28.02;52.61;99160.41;3456571;28;20046;-77
2021/08/19 07:24:08;;;;;;;12.53;6.73;;;;;;;28.01;53.07;99160.72;3464963;28;20370;-77
2021/08/19 07:25:50;;;;;;;9.38;6.70;;;;;;;27.98;52.87;99153.16;3463425;28;20489;-77
2021/08/19 07:27:30;;;;;;;9.48;6.00;;;;;;;27.96;52.88;99152.66;3456185;28;20445;-78
2021/08/19 07:29:11;;;;;;;8.90;7.00;;;;;;;27.90;53.04;99152.03;3455455;28;20080;-77
2021/08/19 07:30:52;;;;;;;9.70;6.23;;;;;;;27.86;52.92;99159.28;3456897;28;20052;-77
2021/08/19 07:32:32;;;;;;;11.43;6.27;;;;;;;27.80;53.01;99160.53;3469910;28;20464;-76
2021/08/19 07:34:13;;;;;;;9.07;6.23;;;;;;;27.72;53.51;99162.13;3469402;28;20132;-77
2021/08/19 07:35:54;;;;;;;10.53;6.17;;;;;;;27.65;53.21;99161.84;3469873;28;20072;-77
2021/08/19 07:37:34;;;;;;;8.30;6.50;;;;;;;27.65;53.23;99169.22;3470049;28;20520;-78
2021/08/19 07:39:16;;;;;;;12.57;8.37;;;;;;;27.58;53.58;99165.03;3469261;28;20045;-76
2021/08/19 07:40:57;;;;;;;;;;;;;;;27.61;53.59;99164.41;3470399;28;20045;-79
2021/08/19 07:42:39;;;;;;;9.23;6.57;;;;;;;27.53;53.35;99161.66;3457440;28;20010;-79
2021/08/19 07:44:20;;;;;;;11.82;7.03;;;;;;;27.51;53.47;99163.91;3457234;28;20100;-77
2021/08/19 07:46:01;;;;;;;10.20;6.17;;;;;;;27.50;53.45;99170.50;3457385;28;20123;-78
2021/08/19 07:47:42;;;;;;;6.47;5.80;;;;;;;27.48;53.71;99168.09;3466978;28;20136;-77
2021/08/19 07:49:22;;;;;;;13.50;7.28;;;;;;;27.46;53.74;99164.06;3462536;28;20037;-78
2021/08/19 07:51:03;;;;;;;10.83;7.17;;;;;;;27.44;53.90;99169.03;3469886;28;20452;-78